Time;durP1;ratioP1;P1;durP2;ratioP2;P2;SDS_P1;SDS_P2;PMS_P1;PMS_P2;Temp;Humidity;BMP_temperature;BMP_pressure;BME280_temperature;BME280_humidity;BME280_pressure;Samples;Min_cycle;Max_cycle;Signal;HPM_P1;HPM_P2
2023/06/14 00:00:25;;;;;;;15.23;9.43;;;;;;;;;;6224245;28;20372;-79
2023/06/14 00:03:25;;;;;;;16.37;9.50;;;;;;;;;;6226715;28;20138;-72
2023/06/14 00:06:26;;;;;;;15.40;9.10;;;;;;;;;;6227753;28;20632;-72
2023/06/14 00:09:27;;;;;;;16.85;9.30;;;;;;;;;;6226881;28;20500;-72
2023/06/14 00:12:27;;;;;;;14.43;8.50;;;;;;;;;;6238957;28;20025;-72
2023/06/14 00:15:28;;;;;;;16.87;9.63;;;;;;;;;;6223442;28;20436;-81
2023/06/14 00:18:29;;;;;;;14.40;8.20;;;;;;;;;;6224749;28;20056;-81
2023/06/14 00:21:30;;;;;;;15.20;8.27;;;;;;;;;;6225384;28;20014;-80
2023/06/14 00:24:30;;;;;;;16.60;9.27;;;;;;;;;;6230475;28;20092;-80
2023/06/14 00:27:30;;;;;;;12.90;8.20;;;;;;;;;;6220229;28;20547;-81
2023/06/14 00:30:30;;;;;;;14.02;8.25;;;;;;;;;;6242134;28;20271;-82
2023/06/14 00:33:30;;;;;;;14.73;10.07;;;;;;;;;;6236487;28;20018;-80
2023/06/14 00:36:31;;;;;;;15.33;8.97;;;;;;;;;;6220801;28;20018;-82
2023/06/14 00:39:31;;;;;;;19.83;11.03;;;;;;;;;;6226071;28;20025;-82
2023/06/14 00:42:31;;;;;;;17.02;9.93;;;;;;;;;;6237627;28;20029;-83
2023/06/14 00:45:35;;;;;;;19.97;10.10;;;;;;;;;;6236600;28;20021;-80
2023/06/14 00:48:36;;;;;;;17.98;9.88;;;;;;;;;;6222868;28;20100;-79
2023/06/14 00:51:37;;;;;;;16.30;9.02;;;;;;;;;;6219415;28;20021;-79
2023/06/14 00:54:37;;;;;;;16.30;9.98;;;;;;;;;;6228591;28;20022;-79
2023/06/14 00:57:39;;;;;;;21.35;11.02;;;;;;;;;;6218711;28;20037;-79
2023/06/14 01:00:39;;;;;;;;;;;;;;;;;;6210618;28;20030;-80
2023/06/14 01:03:40;;;;;;;21.85;11.82;;;;;;;;;;6215448;28;19916;-79
2023/06/14 01:06:44;;;;;;;21.20;11.43;;;;;;;;;;6214924;28;20030;-77
2023/06/14 01:10:03;;;;;;;18.70;11.40;;;;;;;;;;6210003;28;20026;-80
2023/06/14 01:13:04;;;;;;;18.30;10.18;;;;;;;;;;6217581;28;20018;-79
2023/06/14 01:16:05;;;;;;;18.33;9.73;;;;;;;;;;6217872;28;20491;-77
2023/06/14 01:19:06;;;;;;;18.50;10.27;;;;;;;;;;6217795;28;20296;-79
2023/06/14 01:22:07;;;;;;;16.40;9.05;;;;;;;;;;6213299;28;20017;-80
2023/06/14 01:25:07;;;;;;;16.23;9.73;;;;;;;;;;6193742;28;20101;-80
2023/06/14 01:28:11;;;;;;;16.87;9.97;;;;;;;;;;6213925;28;20045;-80
2023/06/14 01:31:12;;;;;;;15.95;9.27;;;;;;;;;;6214695;28;20021;-78
2023/06/14 01:34:12;;;;;;;17.15;11.00;;;;;;;;;;6207175;28;20007;-78
2023/06/14 01:37:13;;;;;;;16.40;9.97;;;;;;;;;;6202579;28;20022;-80
2023/06/14 01:40:14;;;;;;;17.65;11.10;;;;;;;;;;6204871;28;20029;-78
2023/06/14 01:43:15;;;;;;;17.92;10.77;;;;;;;;;;6213945;28;20163;-81
2023/06/14 01:46:15;;;;;;;19.63;11.40;;;;;;;;;;6185809;28;20431;-79
2023/06/14 01:49:16;;;;;;;20.90;9.23;;;;;;;;;;6211458;28;20046;-78
2023/06/14 01:52:19;;;;;;;20.53;11.43;;;;;;;;;;6204106;28;20179;-79
2023/06/14 01:55:21;;;;;;;20.83;8.88;;;;;;;;;;6212943;28;20042;-79
2023/06/14 01:58:21;;;;;;;18.98;10.27;;;;;;;;;;6218005;28;20560;-79
2023/06/14 02:01:22;;;;;;;19.05;10.57;;;;;;;;;;6204925;28;20014;-78
2023/06/14 02:04:22;;;;;;;15.10;8.37;;;;;;;;;;6206741;28;20019;-79
2023/06/14 02:07:22;;;;;;;14.32;8.85;;;;;;;;;;6211326;28;20010;-78
2023/06/14 02:10:23;;;;;;;14.63;8.67;;;;;;;;;;6210249;28;20530;-78
2023/06/14 02:13:23;;;;;;;12.43;7.33;;;;;;;;;;6213135;28;20021;-78
2023/06/14 02:16:24;;;;;;;14.98;8.93;;;;;;;;;;6217457;28;20052;-79
2023/06/14 02:19:26;;;;;;;14.93;8.68;;;;;;;;;;6208554;28;20042;-79
2023/06/14 02:22:26;;;;;;;12.43;8.47;;;;;;;;;;6198570;28;20018;-79
2023/06/14 02:25:27;;;;;;;16.26;8.52;;;;;;;;;;6205346;28;20257;-78
2023/06/14 02:28:27;;;;;;;15.70;8.73;;;;;;;;;;6210510;28;20479;-78
2023/06/14 02:31:29;;;;;;;16.60;8.60;;;;;;;;;;6210299;28;20025;-77
2023/06/14 02:34:29;;;;;;;15.60;7.53;;;;;;;;;;6216911;28;20488;-79
2023/06/14 02:37:29;;;;;;;17.60;9.23;;;;;;;;;;6215485;28;20029;-78
2023/06/14 02:40:29;;;;;;;14.37;8.60;;;;;;;;;;6217494;28;20514;-78
2023/06/14 02:43:30;;;;;;;16.83;10.07;;;;;;;;;;6214040;28;20037;-78
2023/06/14 02:46:30;;;;;;;15.90;9.50;;;;;;;;;;6218092;28;20069;-79
2023/06/14 02:49:30;;;;;;;17.97;10.50;;;;;;;;;;6217696;28;20022;-78
2023/06/14 02:52:33;;;;;;;16.57;9.77;;;;;;;;;;6213941;28;20073;-78
2023/06/14 02:55:33;;;;;;;16.15;10.10;;;;;;;;;;6209600;28;20029;-72
2023/06/14 02:58:33;;;;;;;14.53;9.50;;;;;;;;;;6208249;28;20034;-72
2023/06/14 03:01:34;;;;;;;17.30;9.47;;;;;;;;;;6211812;28;20041;-72
2023/06/14 03:04:37;;;;;;;15.97;11.93;;;;;;;;;;6215295;28;20018;-72
2023/06/14 03:07:40;;;;;;;18.77;9.68;;;;;;;;;;6210912;28;20045;-72
2023/06/14 03:10:41;;;;;;;19.13;9.23;;;;;;;;;;6215352;28;20109;-72
2023/06/14 03:13:41;;;;;;;18.73;10.40;;;;;;;;;;6212548;28;20782;-72
2023/06/14 03:16:41;;;;;;;19.33;10.38;;;;;;;;;;6205623;28;20052;-72
2023/06/14 03:19:41;;;;;;;16.63;8.90;;;;;;;;;;6214129;28;20071;-72
2023/06/14 03:22:41;;;;;;;17.88;10.90;;;;;;;;;;6198760;28;20029;-72
2023/06/14 03:25:42;;;;;;;13.95;8.95;;;;;;;;;;6210646;28;20013;-72
2023/06/14 03:28:42;;;;;;;20.20;11.00;;;;;;;;;;6215324;28;20022;-72
2023/06/14 03:31:56;;;;;;;20.57;11.33;;;;;;;;;;6217291;28;20037;-73
2023/06/14 03:34:56;;;;;;;17.52;9.73;;;;;;;;;;6209418;28;20057;-72
2023/06/14 03:37:58;;;;;;;19.93;10.50;;;;;;;;;;6210205;28;20319;-73
2023/06/14 03:40:58;;;;;;;17.30;9.73;;;;;;;;;;6206661;28;20022;-72
2023/06/14 03:43:59;;;;;;;17.47;10.37;;;;;;;;;;6212812;28;20533;-72
2023/06/14 03:46:59;;;;;;;17.50;9.80;;;;;;;;;;6215363;28;20084;-72
2023/06/14 03:50:00;;;;;;;20.73;10.55;;;;;;;;;;6216135;28;20025;-72
2023/06/14 03:53:01;;;;;;;16.87;10.20;;;;;;;;;;6218505;28;20046;-72
2023/06/14 03:56:01;;;;;;;17.60;10.17;;;;;;;;;;6208877;28;20058;-72
2023/06/14 03:59:02;;;;;;;17.80;10.63;;;;;;;;;;6208160;28;20021;-72
2023/06/14 04:02:02;;;;;;;18.57;11.67;;;;;;;;;;6215272;28;20488;-72
2023/06/14 04:05:03;;;;;;;18.70;10.27;;;;;;;;;;6206697;28;20023;-72
2023/06/14 04:08:03;;;;;;;19.87;11.43;;;;;;;;;;6210174;28;20018;-71
2023/06/14 04:11:03;;;;;;;17.47;10.70;;;;;;;;;;6216829;28;20081;-72
2023/06/14 04:14:03;;;;;;;22.38;13.18;;;;;;;;;;6212920;28;20135;-78
2023/06/14 04:17:04;;;;;;;22.33;10.73;;;;;;;;;;6204843;28;20018;-78
2023/06/14 04:20:06;;;;;;;19.63;11.13;;;;;;;;;;6179672;28;20065;-78
2023/06/14 04:23:13;;;;;;;20.15;11.10;;;;;;;;;;6213100;28;20018;-79
2023/06/14 04:26:14;;;;;;;23.10;11.23;;;;;;;;;;6209719;28;20030;-72
2023/06/14 04:29:16;;;;;;;21.08;11.23;;;;;;;;;;6203291;28;20069;-72
2023/06/14 04:32:17;;;;;;;22.20;11.13;;;;;;;;;;6209983;28;20017;-73
2023/06/14 04:35:18;;;;;;;;;;;;;;;;;;6208859;28;20176;-79
2023/06/14 04:38:18;;;;;;;20.95;11.07;;;;;;;;;;6212895;28;19968;-78
2023/06/14 04:41:19;;;;;;;21.83;13.10;;;;;;;;;;6211060;28;20399;-79
2023/06/14 04:44:24;;;;;;;20.90;11.43;;;;;;;;;;6204360;28;20009;-78
2023/06/14 04:47:29;;;;;;;23.17;12.27;;;;;;;;;;6203346;28;20022;-79
2023/06/14 04:50:29;;;;;;;20.85;12.00;;;;;;;;;;6211308;28;20037;-79
2023/06/14 04:53:31;;;;;;;18.93;10.93;;;;;;;;;;6209920;28;20026;-79
2023/06/14 04:56:31;;;;;;;20.58;10.50;;;;;;;;;;6206872;28;20065;-79
2023/06/14 04:59:33;;;;;;;23.53;12.67;;;;;;;;;;6205599;28;20030;-78
2023/06/14 05:02:33;;;;;;;21.55;12.20;;;;;;;;;;6212410;28;20022;-79
2023/06/14 05:05:33;;;;;;;22.30;12.53;;;;;;;;;;6208902;28;20384;-79
2023/06/14 05:08:34;;;;;;;23.70;13.43;;;;;;;;;;6207045;28;20049;-79
2023/06/14 05:11:34;;;;;;;22.42;12.18;;;;;;;;;;6215989;28;20030;-79
2023/06/14 05:14:34;;;;;;;19.70;10.97;;;;;;;;;;6204529;28;20026;-77
2023/06/14 05:17:35;;;;;;;18.07;12.03;;;;;;;;;;6203970;28;20088;-78
2023/06/14 05:20:37;;;;;;;39.53;20.38;;;;;;;;;;6202411;28;20019;-78
2023/06/14 05:23:37;;;;;;;28.85;17.20;;;;;;;;;;6210024;28;20034;-78
2023/06/14 05:26:37;;;;;;;30.47;19.27;;;;;;;;;;6213857;28;20057;-78
2023/06/14 05:29:37;;;;;;;28.50;15.25;;;;;;;;;;6210343;28;20022;-78
2023/06/14 05:32:37;;;;;;;31.13;17.73;;;;;;;;;;6211583;28;20054;-79
2023/06/14 05:35:38;;;;;;;31.70;17.95;;;;;;;;;;6211926;28;20026;-78
2023/06/14 05:38:38;;;;;;;27.33;19.43;;;;;;;;;;6195278;28;20030;-76
2023/06/14 05:41:38;;;;;;;28.75;19.90;;;;;;;;;;6200712;28;20432;-77
2023/06/14 05:44:38;;;;;;;30.67;20.20;;;;;;;;;;6213388;28;20015;-73
2023/06/14 05:47:40;;;;;;;26.30;19.67;;;;;;;;;;6212291;28;20471;-73
2023/06/14 05:50:40;;;;;;;30.17;18.50;;;;;;;;;;6208689;28;20049;-74
2023/06/14 05:53:40;;;;;;;25.85;17.65;;;;;;;;;;6210303;28;20021;-73
2023/06/14 05:56:40;;;;;;;29.23;18.05;;;;;;;;;;6217084;28;20046;-73
2023/06/14 05:59:40;;;;;;;21.00;15.27;;;;;;;;;;6195964;28;20057;-74
2023/06/14 06:02:43;;;;;;;23.80;15.87;;;;;;;;;;6210802;28;20026;-73
2023/06/14 06:05:44;;;;;;;27.02;16.50;;;;;;;;;;6209520;28;20089;-77
2023/06/14 06:08:45;;;;;;;30.80;17.87;;;;;;;;;;6208383;28;20827;-75
2023/06/14 06:11:45;;;;;;;34.75;20.65;;;;;;;;;;6210839;28;20575;-76
2023/06/14 06:14:45;;;;;;;27.83;17.80;;;;;;;;;;6213562;28;20073;-76
2023/06/14 06:17:46;;;;;;;53.70;28.92;;;;;;;;;;6209505;28;20099;-76
2023/06/14 06:20:47;;;;;;;64.47;31.77;;;;;;;;;;6205173;28;20033;-76
2023/06/14 06:23:47;;;;;;;65.73;31.63;;;;;;;;;;6215489;28;20014;-76
2023/06/14 06:26:47;;;;;;;52.88;25.88;;;;;;;;;;6202055;28;20849;-77
2023/06/14 06:29:48;;;;;;;30.90;17.30;;;;;;;;;;6206463;28;20025;-76
2023/06/14 06:32:48;;;;;;;25.40;15.10;;;;;;;;;;6214545;28;20547;-75
2023/06/14 06:35:48;;;;;;;20.50;11.30;;;;;;;;;;6211329;28;20014;-78
2023/06/14 06:38:49;;;;;;;18.77;10.17;;;;;;;;;;6201973;28;20029;-76
2023/06/14 06:41:49;;;;;;;21.93;10.27;;;;;;;;;;6205594;28;20022;-77
2023/06/14 06:44:49;;;;;;;11.43;5.53;;;;;;;;;;6208959;28;20021;-73
2023/06/14 06:47:50;;;;;;;8.67;5.10;;;;;;;;;;6208688;28;20389;-73
2023/06/14 06:50:51;;;;;;;6.47;3.43;;;;;;;;;;6207447;28;20030;-73
2023/06/14 06:53:54;;;;;;;6.00;3.83;;;;;;;;;;6209814;28;20026;-73
2023/06/14 06:56:54;;;;;;;8.65;3.70;;;;;;;;;;6202762;28;20042;-73
2023/06/14 06:59:55;;;;;;;10.70;3.93;;;;;;;;;;6202255;28;20033;-73
2023/06/14 07:02:55;;;;;;;5.20;3.55;;;;;;;;;;6202201;28;20022;-73
2023/06/14 07:05:55;;;;;;;5.47;3.50;;;;;;;;;;6209045;28;20033;-73
2023/06/14 07:09:01;;;;;;;5.17;3.63;;;;;;;;;;6208500;28;20456;-73
2023/06/14 07:12:01;;;;;;;7.43;3.05;;;;;;;;;;6217977;28;20026;-73
2023/06/14 07:15:01;;;;;;;4.20;3.20;;;;;;;;;;6202542;28;20026;-74
2023/06/14 07:18:01;;;;;;;6.00;3.40;;;;;;;;;;6201849;28;20026;-74
2023/06/14 07:21:01;;;;;;;6.73;4.37;;;;;;;;;;6220091;28;20025;-74
2023/06/14 07:24:02;;;;;;;8.80;4.80;;;;;;;;;;6208598;28;20022;-74
2023/06/14 07:27:04;;;;;;;5.97;4.33;;;;;;;;;;6214991;28;20115;-74
2023/06/14 07:30:04;;;;;;;4.78;3.60;;;;;;;;;;6199769;28;20033;-73
2023/06/14 07:33:05;;;;;;;5.60;3.67;;;;;;;;;;6206036;28;20021;-75
2023/06/14 07:36:05;;;;;;;4.40;3.63;;;;;;;;;;6207214;28;20028;-74
2023/06/14 07:39:06;;;;;;;4.47;3.00;;;;;;;;;;6213832;28;20030;-74
2023/06/14 07:42:06;;;;;;;6.07;4.33;;;;;;;;;;6200123;28;20481;-73
2023/06/14 07:45:07;;;;;;;7.10;4.23;;;;;;;;;;6212411;28;20018;-74
2023/06/14 07:48:07;;;;;;;6.63;4.67;;;;;;;;;;6210348;28;20388;-73
2023/06/14 07:51:07;;;;;;;5.72;3.38;;;;;;;;;;6206017;28;20046;-74
2023/06/14 07:54:08;;;;;;;7.90;4.43;;;;;;;;;;6206023;28;20911;-82
2023/06/14 07:57:08;;;;;;;6.13;4.10;;;;;;;;;;6219074;28;20460;-84
2023/06/14 08:00:11;;;;;;;4.90;4.07;;;;;;;;;;6214208;28;20028;-81
2023/06/14 08:03:11;;;;;;;8.13;4.15;;;;;;;;;;6201990;28;20022;-84
2023/06/14 08:06:11;;;;;;;4.70;3.35;;;;;;;;;;6205237;28;20477;-84
2023/06/14 08:09:14;;;;;;;5.50;4.37;;;;;;;;;;6212274;28;20022;-84
2023/06/14 08:12:16;;;;;;;5.35;4.30;;;;;;;;;;6207954;28;20108;-84
2023/06/14 08:15:16;;;;;;;;;;;;;;;;;;6203245;28;20022;-83
2023/06/14 08:18:16;;;;;;;6.88;3.95;;;;;;;;;;6207167;28;19964;-82
2023/06/14 08:21:17;;;;;;;5.45;4.10;;;;;;;;;;6215553;28;20097;-84
2023/06/14 08:24:20;;;;;;;6.45;4.97;;;;;;;;;;6207790;28;20362;-74
2023/06/14 08:27:20;;;;;;;6.93;4.95;;;;;;;;;;6207846;28;20550;-74
2023/06/14 08:30:21;;;;;;;7.13;4.83;;;;;;;;;;6204895;28;20023;-74
2023/06/14 08:33:21;;;;;;;6.63;4.60;;;;;;;;;;6205543;28;20396;-74
2023/06/14 08:36:22;;;;;;;8.40;6.00;;;;;;;;;;6205146;28;20049;-74
2023/06/14 08:39:23;;;;;;;6.50;4.77;;;;;;;;;;6204179;28;20104;-74
2023/06/14 08:42:24;;;;;;;6.43;5.30;;;;;;;;;;6203477;28;20033;-74
2023/06/14 08:45:25;;;;;;;7.60;4.37;;;;;;;;;;6217299;28;20440;-73
2023/06/14 08:48:26;;;;;;;5.88;4.50;;;;;;;;;;6209237;28;20023;-74
2023/06/14 08:51:33;;;;;;;6.05;4.40;;;;;;;;;;6212932;28;20025;-74
2023/06/14 08:54:35;;;;;;;6.30;3.58;;;;;;;;;;6208220;28;20022;-74
2023/06/14 08:57:37;;;;;;;6.03;3.75;;;;;;;;;;6211430;28;20054;-74
2023/06/14 09:00:38;;;;;;;3.95;3.22;;;;;;;;;;6204753;28;20095;-74
2023/06/14 09:03:40;;;;;;;4.65;3.50;;;;;;;;;;6209216;28;20022;-74
2023/06/14 09:06:41;;;;;;;3.47;3.00;;;;;;;;;;6206105;28;20048;-74
2023/06/14 09:09:44;;;;;;;4.60;3.13;;;;;;;;;;6212128;28;20399;-74
2023/06/14 09:12:45;;;;;;;5.07;3.13;;;;;;;;;;6217259;28;20040;-74
2023/06/14 09:15:45;;;;;;;6.53;3.50;;;;;;;;;;6204278;28;20053;-74
2023/06/14 09:18:49;;;;;;;4.07;3.13;;;;;;;;;;6212585;28;20104;-74
2023/06/14 09:21:49;;;;;;;5.78;3.63;;;;;;;;;;6212064;28;20088;-74
2023/06/14 09:24:50;;;;;;;4.13;3.13;;;;;;;;;;6211522;28;20472;-73
2023/06/14 09:27:51;;;;;;;4.67;3.43;;;;;;;;;;6212822;28;20547;-74
2023/06/14 09:30:51;;;;;;;6.25;4.25;;;;;;;;;;6210103;28;20030;-74
2023/06/14 09:33:55;;;;;;;6.07;3.33;;;;;;;;;;6209977;28;20846;-74
2023/06/14 09:36:55;;;;;;;3.78;2.60;;;;;;;;;;6211417;28;20438;-74
2023/06/14 09:39:55;;;;;;;3.83;2.70;;;;;;;;;;6203710;28;20025;-74
2023/06/14 09:42:57;;;;;;;7.20;2.47;;;;;;;;;;6205841;28;20695;-74
2023/06/14 09:45:57;;;;;;;2.67;2.17;;;;;;;;;;6206168;28;20017;-74
2023/06/14 09:48:58;;;;;;;3.90;2.70;;;;;;;;;;6207530;28;20022;-74
2023/06/14 09:51:59;;;;;;;3.17;2.38;;;;;;;;;;6208296;28;20060;-74
2023/06/14 09:55:00;;;;;;;4.53;2.50;;;;;;;;;;6205379;28;20021;-73
2023/06/14 09:58:02;;;;;;;3.73;2.50;;;;;;;;;;6204874;28;20049;-74
2023/06/14 10:01:05;;;;;;;3.50;2.35;;;;;;;;;;6206337;28;20042;-74
2023/06/14 10:04:07;;;;;;;3.28;2.60;;;;;;;;;;6208453;28;20073;-74
2023/06/14 10:07:08;;;;;;;5.28;3.78;;;;;;;;;;6213198;28;20021;-74
2023/06/14 10:10:08;;;;;;;4.13;2.90;;;;;;;;;;6211174;28;20041;-74
2023/06/14 10:13:10;;;;;;;4.87;3.50;;;;;;;;;;6207554;28;20026;-74
2023/06/14 10:16:31;;;;;;;4.05;3.45;;;;;;;;;;6212467;28;20052;-77
2023/06/14 10:19:37;;;;;;;5.80;4.23;;;;;;;;;;6204444;28;20602;-76
2023/06/14 10:22:41;;;;;;;7.63;4.97;;;;;;;;;;6205611;28;20515;-77
2023/06/14 10:25:42;;;;;;;7.72;4.65;;;;;;;;;;6212351;28;20177;-74
2023/06/14 10:28:55;;;;;;;5.95;4.20;;;;;;;;;;6198010;28;20022;-74
2023/06/14 10:31:56;;;;;;;6.07;3.75;;;;;;;;;;6205636;28;20033;-74
2023/06/14 10:34:56;;;;;;;;;;;;;;;;;;6206337;28;20487;-80
2023/06/14 10:38:06;;;;;;;8.55;5.45;;;;;;;;;;6196154;28;19905;-80
2023/06/14 10:41:06;;;;;;;5.70;4.55;;;;;;;;;;6205747;28;20131;-76
2023/06/14 10:44:12;;;;;;;8.40;4.17;;;;;;;;;;6212912;28;20018;-78
2023/06/14 10:47:29;;;;;;;5.00;4.00;;;;;;;;;;6210494;28;20018;-77
2023/06/14 10:50:29;;;;;;;7.03;4.97;;;;;;;;;;6214307;28;20380;-78
2023/06/14 10:53:39;;;;;;;6.73;4.67;;;;;;;;;;6203048;28;20018;-80
2023/06/14 10:56:49;;;;;;;5.32;4.05;;;;;;;;;;6217787;28;20050;-77
2023/06/14 10:59:50;;;;;;;7.88;5.07;;;;;;;;;;6220974;28;20120;-77
2023/06/14 11:02:54;;;;;;;6.07;4.03;;;;;;;;;;6222504;28;20014;-79
2023/06/14 11:05:55;;;;;;;9.45;5.65;;;;;;;;;;6220144;28;20022;-80
2023/06/14 11:09:14;;;;;;;9.88;4.90;;;;;;;;;;6225201;28;20127;-79
2023/06/14 11:12:15;;;;;;;7.38;5.00;;;;;;;;;;6222774;28;20534;-82
2023/06/14 11:15:15;;;;;;;6.82;5.53;;;;;;;;;;6222394;28;20025;-81
2023/06/14 11:18:16;;;;;;;8.40;5.33;;;;;;;;;;6224145;28;20058;-81
2023/06/14 11:21:17;;;;;;;7.23;5.13;;;;;;;;;;6228397;28;20108;-81
2023/06/14 11:24:18;;;;;;;7.97;3.85;;;;;;;;;;6226834;28;20273;-84
2023/06/14 11:27:18;;;;;;;5.07;4.00;;;;;;;;;;6228103;28;20434;-77
2023/06/14 11:30:18;;;;;;;4.00;3.40;;;;;;;;;;6221627;28;20542;-86
2023/06/14 11:33:18;;;;;;;5.70;3.40;;;;;;;;;;6227010;28;20025;-83
2023/06/14 11:36:19;;;;;;;5.77;3.57;;;;;;;;;;6187054;28;20476;-85
2023/06/14 11:39:23;;;;;;;4.00;3.27;;;;;;;;;;6226491;28;20101;-84
2023/06/14 11:42:24;;;;;;;5.43;3.95;;;;;;;;;;6217750;28;20435;-86
2023/06/14 11:45:24;;;;;;;4.80;3.40;;;;;;;;;;6221872;28;20026;-84
2023/06/14 11:48:41;;;;;;;4.00;3.17;;;;;;;;;;6222179;28;20018;-81
2023/06/14 11:51:43;;;;;;;3.55;2.67;;;;;;;;;;6238899;28;20574;-84
2023/06/14 11:54:43;;;;;;;5.43;3.30;;;;;;;;;;6233248;28;20100;-74
2023/06/14 11:57:46;;;;;;;3.92;3.53;;;;;;;;;;6213656;28;20519;-74
2023/06/14 12:00:48;;;;;;;4.57;3.42;;;;;;;;;;6193059;28;20286;-74
2023/06/14 12:03:49;;;;;;;4.75;3.20;;;;;;;;;;6195291;28;20022;-75
2023/06/14 12:06:49;;;;;;;8.03;4.73;;;;;;;;;;6195597;28;20030;-74
2023/06/14 12:09:58;;;;;;;8.10;3.70;;;;;;;;;;6196230;28;20284;-74
2023/06/14 12:12:59;;;;;;;5.97;3.95;;;;;;;;;;6195264;28;20022;-74
2023/06/14 12:16:00;;;;;;;4.47;3.55;;;;;;;;;;6195781;28;20038;-75
2023/06/14 12:19:01;;;;;;;4.35;3.38;;;;;;;;;;6195815;28;20022;-75
2023/06/14 12:22:04;;;;;;;6.57;4.13;;;;;;;;;;6181321;28;20034;-74
2023/06/14 12:25:05;;;;;;;6.90;5.15;;;;;;;;;;6196129;28;20026;-74
2023/06/14 12:28:06;;;;;;;10.65;6.10;;;;;;;;;;6178516;28;20393;-75
2023/06/14 12:31:07;;;;;;;12.10;7.45;;;;;;;;;;6201005;28;20067;-74
2023/06/14 12:34:07;;;;;;;9.07;6.40;;;;;;;;;;6198922;28;20117;-74
2023/06/14 12:37:07;;;;;;;11.80;5.80;;;;;;;;;;6195300;28;20028;-75
2023/06/14 12:40:08;;;;;;;9.60;5.90;;;;;;;;;;6179551;28;20014;-75
2023/06/14 12:43:08;;;;;;;10.00;6.47;;;;;;;;;;6195233;28;20440;-75
2023/06/14 12:46:08;;;;;;;10.07;6.30;;;;;;;;;;6196935;28;20053;-86
2023/06/14 12:49:13;;;;;;;12.73;7.53;;;;;;;;;;6186341;28;20045;-88
2023/06/14 12:52:13;;;;;;;14.77;9.82;;;;;;;;;;6199082;28;20022;-88
2023/06/14 12:55:14;;;;;;;13.17;7.97;;;;;;;;;;6200258;28;20108;-89
2023/06/14 12:58:16;;;;;;;11.45;6.32;;;;;;;;;;6198246;28;20088;-86
2023/06/14 13:01:17;;;;;;;14.15;8.00;;;;;;;;;;6193621;28;20109;-84
2023/06/14 13:04:17;;;;;;;16.75;10.07;;;;;;;;;;6199507;28;20379;-84
2023/06/14 13:07:17;;;;;;;13.82;7.82;;;;;;;;;;6194673;28;20506;-86
2023/06/14 13:10:18;;;;;;;14.07;8.70;;;;;;;;;;6196052;28;20399;-87
2023/06/14 13:13:18;;;;;;;16.00;10.40;;;;;;;;;;6195527;28;20029;-87
2023/06/14 13:16:18;;;;;;;12.93;7.40;;;;;;;;;;6196904;28;20476;-86
2023/06/14 13:19:18;;;;;;;16.90;8.25;;;;;;;;;;6198032;28;20026;-83
2023/06/14 13:22:18;;;;;;;13.43;7.35;;;;;;;;;;6198420;28;20031;-87
2023/06/14 13:25:19;;;;;;;10.47;6.83;;;;;;;;;;6198276;28;20015;-86
2023/06/14 13:28:20;;;;;;;14.53;7.10;;;;;;;;;;6196629;28;20124;-87
2023/06/14 13:31:21;;;;;;;15.50;9.45;;;;;;;;;;6194539;28;20084;-84
2023/06/14 13:34:21;;;;;;;14.27;9.33;;;;;;;;;;6198361;28;20044;-87
2023/06/14 13:37:21;;;;;;;13.85;7.60;;;;;;;;;;6193843;28;20053;-87
2023/06/14 13:40:21;;;;;;;13.37;8.07;;;;;;;;;;6189464;28;20026;-85
2023/06/14 13:43:22;;;;;;;11.30;6.47;;;;;;;;;;6195085;28;20392;-86
2023/06/14 13:46:23;;;;;;;12.70;6.45;;;;;;;;;;6193955;28;20019;-88
2023/06/14 13:49:23;;;;;;;10.45;5.47;;;;;;;;;;6193458;28;20358;-84
2023/06/14 13:52:23;;;;;;;16.55;9.20;;;;;;;;;;6194879;28;20037;-86
2023/06/14 13:55:23;;;;;;;13.30;6.80;;;;;;;;;;6193992;28;20060;-85
2023/06/14 13:58:25;;;;;;;12.13;7.83;;;;;;;;;;6213563;28;20049;-86
2023/06/14 14:01:26;;;;;;;;;;;;;;;;;;6215997;28;20018;-88
2023/06/14 14:04:26;;;;;;;14.20;6.82;;;;;;;;;;6216011;28;19910;-88
2023/06/14 14:07:28;;;;;;;11.43;6.00;;;;;;;;;;6218293;28;20024;-88
2023/06/14 14:10:28;;;;;;;8.25;4.45;;;;;;;;;;6216075;28;20547;-87
2023/06/14 14:13:29;;;;;;;;;;;;;;;;;;6217798;28;20022;-87
2023/06/14 14:16:30;;;;;;;8.25;5.00;;;;;;;;;;6217355;28;19920;-87
2023/06/14 14:19:30;;;;;;;10.43;5.68;;;;;;;;;;6217982;28;20021;-84
2023/06/14 14:22:30;;;;;;;6.53;3.72;;;;;;;;;;6218168;28;20025;-84
2023/06/14 14:25:30;;;;;;;7.85;4.80;;;;;;;;;;6217717;28;20018;-85
2023/06/14 14:28:31;;;;;;;7.68;4.75;;;;;;;;;;6217405;28;20034;-88
2023/06/14 14:31:31;;;;;;;9.02;4.57;;;;;;;;;;6221349;28;20037;-88
2023/06/14 14:34:31;;;;;;;6.57;4.53;;;;;;;;;;6223936;28;20029;-89
2023/06/14 14:37:31;;;;;;;6.50;4.30;;;;;;;;;;6225577;28;20029;-89
2023/06/14 14:40:31;;;;;;;;;;;;;;;;;;6221299;28;20028;-89
2023/06/14 14:43:32;;;;;;;8.70;4.68;;;;;;;;;;6222315;28;19906;-88
2023/06/14 14:46:32;;;;;;;;;;;;;;;;;;6228769;28;20037;-87
2023/06/14 14:49:32;;;;;;;8.02;4.72;;;;;;;;;;6220266;28;19916;-88
2023/06/14 14:52:32;;;;;;;5.50;3.83;;;;;;;;;;6222292;28;20010;-86
2023/06/14 14:55:35;;;;;;;8.27;4.20;;;;;;;;;;6221553;28;20018;-84
2023/06/14 14:58:36;;;;;;;6.40;3.80;;;;;;;;;;6199648;28;20125;-87
2023/06/14 15:01:36;;;;;;;6.20;4.03;;;;;;;;;;6199379;28;20019;-85
2023/06/14 15:04:36;;;;;;;6.17;3.70;;;;;;;;;;6182042;28;20437;-87
2023/06/14 15:07:38;;;;;;;6.97;4.03;;;;;;;;;;6175593;28;20018;-88
2023/06/14 15:10:41;;;;;;;6.60;4.80;;;;;;;;;;6199673;28;20029;-87
2023/06/14 15:13:41;;;;;;;6.75;4.22;;;;;;;;;;6198616;28;20022;-82
2023/06/14 15:16:41;;;;;;;8.93;3.97;;;;;;;;;;6198254;28;20026;-85
2023/06/14 15:19:41;;;;;;;7.97;3.67;;;;;;;;;;6196817;28;20223;-85
2023/06/14 15:22:41;;;;;;;7.00;4.60;;;;;;;;;;6197766;28;20019;-85
2023/06/14 15:25:41;;;;;;;5.72;4.13;;;;;;;;;;6202272;28;20057;-86
2023/06/14 15:28:42;;;;;;;6.35;4.13;;;;;;;;;;6196904;28;20049;-87
2023/06/14 15:31:42;;;;;;;7.73;4.60;;;;;;;;;;6197479;28;20060;-86
2023/06/14 15:34:42;;;;;;;9.38;5.10;;;;;;;;;;6194156;28;20035;-75
2023/06/14 15:37:42;;;;;;;6.38;4.00;;;;;;;;;;6193295;28;20109;-75
2023/06/14 15:40:42;;;;;;;7.78;4.57;;;;;;;;;;6190572;28;20097;-75
2023/06/14 15:43:43;;;;;;;6.03;4.10;;;;;;;;;;6198193;28;20032;-75
2023/06/14 15:46:43;;;;;;;8.20;4.07;;;;;;;;;;6195040;28;20139;-76
2023/06/14 15:49:43;;;;;;;6.40;4.17;;;;;;;;;;6194022;28;20084;-76
2023/06/14 15:52:43;;;;;;;5.13;3.77;;;;;;;;;;6198413;28;20040;-74
2023/06/14 15:55:43;;;;;;;6.30;3.65;;;;;;;;;;6178173;28;20084;-74
2023/06/14 15:58:44;;;;;;;7.17;3.90;;;;;;;;;;6219804;28;20046;-74
2023/06/14 16:01:44;;;;;;;9.50;4.90;;;;;;;;;;6217289;28;20112;-74
2023/06/14 16:04:44;;;;;;;9.50;4.75;;;;;;;;;;6215082;28;20030;-75
2023/06/14 16:07:44;;;;;;;;;;;;;;;;;;6219450;28;20034;-75
2023/06/14 16:10:44;;;;;;;7.47;3.83;;;;;;;;;;6218652;28;19917;-74
2023/06/14 16:13:45;;;;;;;6.50;3.50;;;;;;;;;;6218564;28;20273;-75
2023/06/14 16:16:46;;;;;;;6.03;3.95;;;;;;;;;;6218863;28;20103;-74
2023/06/14 16:19:46;;;;;;;6.97;3.83;;;;;;;;;;6197843;28;20079;-75
2023/06/14 16:22:47;;;;;;;9.20;4.40;;;;;;;;;;6220217;28;20587;-74
2023/06/14 16:25:47;;;;;;;6.75;4.40;;;;;;;;;;6219657;28;20360;-84
2023/06/14 16:28:48;;;;;;;12.50;5.53;;;;;;;;;;6218254;28;20037;-84
2023/06/14 16:31:48;;;;;;;11.18;5.13;;;;;;;;;;6213942;28;20040;-84
2023/06/14 16:34:48;;;;;;;8.10;4.97;;;;;;;;;;6219825;28;20057;-84
2023/06/14 16:37:48;;;;;;;8.90;5.53;;;;;;;;;;6218708;28;20507;-83
2023/06/14 16:40:48;;;;;;;14.50;5.47;;;;;;;;;;6218683;28;20018;-82
2023/06/14 16:43:49;;;;;;;8.70;4.57;;;;;;;;;;6218273;28;20083;-82
2023/06/14 16:46:49;;;;;;;7.07;3.60;;;;;;;;;;6218891;28;20014;-84
2023/06/14 16:49:50;;;;;;;4.90;3.50;;;;;;;;;;6200910;28;20025;-85
2023/06/14 16:52:50;;;;;;;5.23;2.80;;;;;;;;;;6217769;28;20484;-82
2023/06/14 16:55:51;;;;;;;6.27;3.77;;;;;;;;;;6214003;28;20033;-74
2023/06/14 16:58:51;;;;;;;5.63;3.87;;;;;;;;;;6222243;28;20684;-74
2023/06/14 17:01:52;;;;;;;4.97;2.77;;;;;;;;;;6215708;28;20532;-74
2023/06/14 17:04:52;;;;;;;4.23;3.03;;;;;;;;;;6218871;28;20050;-74
2023/06/14 17:07:52;;;;;;;9.10;3.28;;;;;;;;;;6219997;28;20119;-74
2023/06/14 17:10:53;;;;;;;6.80;3.63;;;;;;;;;;6230943;28;20029;-74
2023/06/14 17:13:54;;;;;;;4.43;2.90;;;;;;;;;;6224714;28;20029;-74
2023/06/14 17:16:56;;;;;;;5.60;3.58;;;;;;;;;;6219197;28;20033;-75
2023/06/14 17:19:56;;;;;;;12.30;4.10;;;;;;;;;;6224419;28;20068;-73
2023/06/14 17:22:57;;;;;;;10.00;4.50;;;;;;;;;;6223672;28;20100;-73
2023/06/14 17:25:57;;;;;;;9.47;3.80;;;;;;;;;;6224953;28;20041;-73
2023/06/14 17:28:57;;;;;;;9.57;4.35;;;;;;;;;;6216443;28;20288;-74
2023/06/14 17:31:58;;;;;;;7.97;5.00;;;;;;;;;;6219660;28;20028;-73
2023/06/14 17:34:58;;;;;;;14.00;5.90;;;;;;;;;;6216579;28;20091;-84
2023/06/14 17:37:58;;;;;;;10.23;4.80;;;;;;;;;;6229855;28;20162;-83
2023/06/14 17:41:00;;;;;;;9.67;5.00;;;;;;;;;;6226781;28;20076;-81
2023/06/14 17:44:00;;;;;;;;;;;;;;;;;;6224615;28;20156;-85
2023/06/14 17:47:00;;;;;;;9.55;6.22;;;;;;;;;;6217098;28;21317;-85
2023/06/14 17:50:02;;;;;;;9.97;5.37;;;;;;;;;;6220179;28;20033;-81
2023/06/14 17:53:05;;;;;;;13.35;5.88;;;;;;;;;;6220901;28;20029;-83
2023/06/14 17:56:05;;;;;;;8.38;5.20;;;;;;;;;;6212693;28;20395;-81